Time;durP1;ratioP1;P1;durP2;ratioP2;P2;SDS_P1;SDS_P2;PMS_P1;PMS_P2;Temp;Humidity;BMP_temperature;BMP_pressure;BME280_temperature;BME280_humidity;BME280_pressure;Samples;Min_cycle;Max_cycle;Signal;HPM_P1;HPM_P2
2023/11/24 00:02:14;;;;;;;18.20;3.22;;;;;;;8.76;100.00;101944.88;5023472;28;20061;-43
2023/11/24 00:04:43;;;;;;;14.98;4.35;;;;;;;8.74;100.00;101955.38;5017535;28;20037;-43
2023/11/24 00:07:11;;;;;;;21.33;5.03;;;;;;;8.71;100.00;101950.50;5024351;28;20046;-42
2023/11/24 00:09:39;;;;;;;13.02;3.72;;;;;;;8.69;100.00;101959.06;5023490;28;20044;-44
2023/11/24 00:12:07;;;;;;;19.83;3.58;;;;;;;8.66;100.00;101948.63;5022578;28;20530;-43
2023/11/24 00:14:34;;;;;;;19.90;4.82;;;;;;;8.65;100.00;101957.22;5019726;28;20049;-45
2023/11/24 00:17:02;;;;;;;23.02;4.32;;;;;;;8.62;100.00;101955.88;5022283;28;20038;-44
2023/11/24 00:19:30;;;;;;;28.65;4.60;;;;;;;8.60;100.00;101955.38;5016817;28;20038;-43
2023/11/24 00:21:57;;;;;;;24.00;4.97;;;;;;;8.58;100.00;101954.84;5018803;28;20057;-43
2023/11/24 00:24:25;;;;;;;23.95;4.93;;;;;;;8.57;100.00;101958.75;5023247;28;20057;-47
2023/11/24 00:26:55;;;;;;;25.23;7.28;;;;;;;8.57;100.00;101967.03;5020983;28;20129;-43
2023/11/24 00:29:22;;;;;;;23.85;4.30;;;;;;;8.55;100.00;101949.94;5022865;28;20045;-48
2023/11/24 00:31:49;;;;;;;21.35;5.05;;;;;;;8.54;100.00;101951.88;5020262;28;20057;-44
2023/11/24 00:34:16;;;;;;;32.67;6.25;;;;;;;8.52;100.00;101939.50;5023334;28;20455;-45
2023/11/24 00:36:46;;;;;;;17.98;3.40;;;;;;;8.49;100.00;101951.97;5019489;28;20049;-44
2023/11/24 00:39:13;;;;;;;24.70;4.07;;;;;;;8.47;100.00;101947.88;5015950;28;20508;-44
2023/11/24 00:41:41;;;;;;;22.42;5.57;;;;;;;8.46;100.00;101955.34;5019564;28;20042;-45
2023/11/24 00:44:08;;;;;;;20.75;4.75;;;;;;;8.44;100.00;101957.59;5022541;28;20041;-44
2023/11/24 00:46:35;;;;;;;14.13;3.95;;;;;;;8.44;100.00;101954.00;5023425;28;20045;-46
2023/11/24 00:49:03;;;;;;;11.63;3.28;;;;;;;8.40;100.00;101966.75;5024337;28;20081;-44
2023/11/24 00:51:30;;;;;;;22.55;4.85;;;;;;;8.33;100.00;101956.09;5021326;28;20054;-44
2023/11/24 00:54:00;;;;;;;24.00;3.60;;;;;;;8.34;100.00;101956.94;5020538;28;20056;-46
2023/11/24 00:56:27;;;;;;;24.48;3.97;;;;;;;8.31;100.00;101968.56;5021937;28;20053;-44
2023/11/24 00:58:54;;;;;;;29.05;5.13;;;;;;;8.29;100.00;101959.75;5021821;28;20419;-45
2023/11/24 01:01:22;;;;;;;22.92;4.22;;;;;;;8.29;100.00;101955.06;5020480;28;20054;-44
2023/11/24 01:03:49;;;;;;;25.52;7.00;;;;;;;8.28;100.00;101964.47;5023059;28;20045;-44
2023/11/24 01:06:16;;;;;;;39.97;5.63;;;;;;;8.27;100.00;101959.22;5022571;28;20053;-42
2023/11/24 01:08:44;;;;;;;29.70;4.75;;;;;;;8.24;100.00;101957.03;5022714;28;20037;-46
2023/11/24 01:11:12;;;;;;;18.67;3.83;;;;;;;8.21;100.00;101952.94;5025509;28;20688;-45
2023/11/24 01:13:39;;;;;;;23.55;3.83;;;;;;;8.20;100.00;101956.84;5029077;28;20041;-44
2023/11/24 01:16:08;;;;;;;24.13;5.28;;;;;;;8.19;100.00;101968.16;5020604;28;20503;-44
2023/11/24 01:18:37;;;;;;;21.10;3.70;;;;;;;8.18;100.00;101967.31;5027850;28;21211;-44
2023/11/24 01:21:06;;;;;;;30.98;3.67;;;;;;;8.16;100.00;101955.78;5025358;28;20038;-44
2023/11/24 01:23:35;;;;;;;30.25;4.47;;;;;;;8.18;100.00;101964.56;5022469;28;20557;-44
2023/11/24 01:26:03;;;;;;;23.88;6.22;;;;;;;8.17;100.00;101979.50;5034271;28;20045;-45
2023/11/24 01:28:30;;;;;;;20.48;5.35;;;;;;;8.16;100.00;101977.03;5028834;28;20045;-44
2023/11/24 01:30:57;;;;;;;26.92;4.75;;;;;;;8.12;100.00;101978.75;5030316;28;20068;-45
2023/11/24 01:33:25;;;;;;;22.25;4.82;;;;;;;8.10;100.00;101975.47;5029919;28;20703;-45
2023/11/24 01:35:55;;;;;;;21.63;3.67;;;;;;;8.10;100.00;101975.47;5030089;28;20053;-45
2023/11/24 01:38:23;;;;;;;21.08;3.88;;;;;;;8.10;100.00;101979.03;5015385;28;20049;-44
2023/11/24 01:40:51;;;;;;;16.95;3.78;;;;;;;8.08;100.00;101978.53;5023890;28;20067;-43
2023/11/24 01:43:18;;;;;;;23.65;3.72;;;;;;;8.08;100.00;101974.94;5030225;28;20048;-43
2023/11/24 01:45:46;;;;;;;21.45;4.80;;;;;;;8.04;100.00;101957.34;5029656;28;20053;-44
2023/11/24 01:48:15;;;;;;;17.60;3.03;;;;;;;7.98;100.00;101976.75;5030028;28;20052;-44
2023/11/24 01:50:43;;;;;;;21.75;4.18;;;;;;;7.94;100.00;101972.94;5030055;28;20096;-45
2023/11/24 01:53:11;;;;;;;25.98;5.97;;;;;;;7.93;100.00;101984.25;5029671;28;20068;-42
2023/11/24 01:55:39;;;;;;;25.08;5.28;;;;;;;7.89;100.00;101989.53;5029479;28;20049;-43
2023/11/24 01:58:06;;;;;;;33.20;7.10;;;;;;;7.89;100.00;101989.53;5029926;28;20499;-44
2023/11/24 02:00:35;;;;;;;21.25;4.05;;;;;;;7.89;100.00;102005.25;5029305;28;20049;-44
2023/11/24 02:03:03;;;;;;;22.17;4.97;;;;;;;7.86;100.00;101990.13;5030153;28;20500;-44
2023/11/24 02:05:30;;;;;;;22.02;3.95;;;;;;;7.84;100.00;101992.38;5029243;28;20057;-43
2023/11/24 02:07:58;;;;;;;19.17;4.78;;;;;;;7.82;100.00;102005.63;5029289;28;20188;-43
2023/11/24 02:10:25;;;;;;;15.38;3.72;;;;;;;7.82;100.00;101991.03;5028924;28;20049;-45
2023/11/24 02:12:53;;;;;;;26.27;3.80;;;;;;;7.83;100.00;101990.75;5028778;28;20133;-43
2023/11/24 02:15:20;;;;;;;26.13;5.45;;;;;;;7.86;100.00;101986.56;5026308;28;20700;-44
2023/11/24 02:17:47;;;;;;;20.02;4.30;;;;;;;7.89;100.00;101986.78;5026466;28;20049;-44
2023/11/24 02:20:15;;;;;;;20.08;3.85;;;;;;;7.91;100.00;101992.03;5024878;28;20049;-43
2023/11/24 02:22:43;;;;;;;19.60;3.53;;;;;;;7.93;100.00;101985.09;5003107;28;20041;-46
2023/11/24 02:25:11;;;;;;;21.40;6.32;;;;;;;7.96;100.00;101989.19;5023906;28;20058;-48
2023/11/24 02:27:38;;;;;;;21.60;4.05;;;;;;;7.94;100.00;101994.19;5024748;28;20050;-44
2023/11/24 02:30:09;;;;;;;22.77;6.55;;;;;;;7.92;100.00;101994.47;5027523;28;20056;-46
2023/11/24 02:32:36;;;;;;;14.27;3.38;;;;;;;7.91;100.00;101998.38;5020070;28;20750;-43
2023/11/24 02:35:05;;;;;;;17.70;3.85;;;;;;;7.87;100.00;102002.81;5029176;28;20526;-45
2023/11/24 02:37:32;;;;;;;18.83;4.35;;;;;;;7.84;100.00;102008.91;5024923;28;20049;-47
2023/11/24 02:40:00;;;;;;;18.88;3.78;;;;;;;7.79;100.00;102011.75;5028550;28;20045;-43
2023/11/24 02:42:27;;;;;;;27.33;6.03;;;;;;;7.80;100.00;102002.38;5026785;28;20041;-44
2023/11/24 02:44:54;;;;;;;15.27;3.08;;;;;;;7.84;100.00;102005.34;5022917;28;20053;-44
2023/11/24 02:47:22;;;;;;;13.50;3.35;;;;;;;7.83;100.00;102007.28;5024047;28;20481;-44
2023/11/24 02:49:49;;;;;;;23.00;4.07;;;;;;;7.85;100.00;102002.28;5027691;28;20049;-43
2023/11/24 02:52:16;;;;;;;18.30;3.63;;;;;;;7.86;100.00;101995.66;5023091;28;20052;-44
2023/11/24 02:54:44;;;;;;;20.63;4.57;;;;;;;7.88;100.00;101998.94;5028404;28;20046;-44
2023/11/24 02:57:11;;;;;;;20.10;3.55;;;;;;;7.87;100.00;101996.47;5028855;28;20060;-45
2023/11/24 02:59:38;;;;;;;20.08;3.25;;;;;;;7.84;100.00;101989.63;5028846;28;20524;-43
2023/11/24 03:02:06;;;;;;;34.67;5.43;;;;;;;7.85;100.00;101988.50;5143910;22;20417;-45
2023/11/24 03:04:33;;;;;;;23.60;3.75;;;;;;;7.83;100.00;101985.25;5048439;28;20063;-44
2023/11/24 03:07:01;;;;;;;14.60;4.13;;;;;;;7.79;100.00;101970.38;5048034;28;20911;-43
2023/11/24 03:09:28;;;;;;;25.17;3.85;;;;;;;7.75;100.00;101972.13;5047700;28;20045;-43
2023/11/24 03:11:55;;;;;;;19.45;3.47;;;;;;;7.73;100.00;101968.81;5048024;28;20060;-44
2023/11/24 03:14:23;;;;;;;25.38;5.28;;;;;;;7.72;100.00;101972.69;5048698;28;20041;-45
2023/11/24 03:16:51;;;;;;;13.65;3.83;;;;;;;7.70;100.00;101972.19;5048213;28;20115;-44
2023/11/24 03:19:19;;;;;;;18.17;4.60;;;;;;;7.71;100.00;101973.81;5046927;28;20037;-43
2023/11/24 03:21:46;;;;;;;27.23;4.50;;;;;;;7.74;100.00;101973.22;5029981;28;20045;-44
2023/11/24 03:24:14;;;;;;;16.15;3.65;;;;;;;7.79;100.00;101970.38;5047821;28;20052;-43
2023/11/24 03:26:41;;;;;;;21.27;4.22;;;;;;;7.82;100.00;101966.22;5047816;28;20052;-44
2023/11/24 03:29:09;;;;;;;19.95;4.32;;;;;;;7.83;100.00;101971.44;5048029;28;20045;-44
2023/11/24 03:31:39;;;;;;;20.55;5.38;;;;;;;7.84;100.00;101958.47;5047178;28;20075;-44
2023/11/24 03:34:06;;;;;;;20.75;4.22;;;;;;;7.82;100.00;101972.56;5047896;28;20375;-44
2023/11/24 03:36:34;;;;;;;20.65;4.13;;;;;;;7.83;100.00;101954.91;5047147;28;20048;-45
2023/11/24 03:39:01;;;;;;;22.73;3.28;;;;;;;7.81;100.00;101964.59;5048016;28;20045;-44
2023/11/24 03:41:29;;;;;;;19.13;4.10;;;;;;;7.79;100.00;101951.09;5047242;28;20049;-45
2023/11/24 03:43:56;;;;;;;29.65;6.47;;;;;;;7.79;100.00;101962.13;5047865;28;20040;-46
2023/11/24 03:46:23;;;;;;;21.65;3.58;;;;;;;7.78;100.00;101956.91;5047373;28;20045;-46
2023/11/24 03:48:50;;;;;;;19.63;4.00;;;;;;;7.78;100.00;101949.44;5047602;28;20414;-44
2023/11/24 03:51:18;;;;;;;17.75;4.53;;;;;;;7.81;100.00;101948.84;5047627;28;20052;-46
2023/11/24 03:53:46;;;;;;;19.75;4.00;;;;;;;7.82;100.00;101952.44;5042161;28;20060;-45
2023/11/24 03:56:15;;;;;;;21.85;4.65;;;;;;;7.81;100.00;101946.09;5047631;28;20041;-45
2023/11/24 03:58:42;;;;;;;18.02;4.57;;;;;;;7.81;100.00;101946.09;5047513;28;20045;-45
2023/11/24 04:01:13;;;;;;;24.20;3.45;;;;;;;7.81;100.00;101951.59;5046762;28;20053;-49
2023/11/24 04:03:46;;;;;;;28.05;7.13;;;;;;;7.80;100.00;101952.75;5047030;28;20064;-45
2023/11/24 04:06:14;;;;;;;19.60;4.70;;;;;;;7.81;100.00;101945.31;5047670;28;20049;-44
2023/11/24 04:08:42;;;;;;;22.55;4.60;;;;;;;7.82;100.00;101946.91;5047177;28;20112;-44
2023/11/24 04:11:10;;;;;;;23.48;4.10;;;;;;;7.84;100.00;101948.25;5047896;28;20049;-44
2023/11/24 04:13:37;;;;;;;21.17;5.93;;;;;;;7.81;100.00;101939.78;5045987;28;20049;-48
2023/11/24 04:16:07;;;;;;;37.50;8.57;;;;;;;7.80;100.00;101935.38;5047492;28;20056;-45
2023/11/24 04:18:34;;;;;;;21.00;4.63;;;;;;;7.80;100.00;101936.19;5046717;28;20406;-45
2023/11/24 04:21:02;;;;;;;29.90;4.15;;;;;;;7.82;100.00;101936.72;5039818;28;20067;-45
2023/11/24 04:23:29;;;;;;;22.63;3.83;;;;;;;7.81;100.00;101935.06;5046035;28;20065;-46
2023/11/24 04:25:56;;;;;;;21.77;4.72;;;;;;;7.81;100.00;101929.56;5046615;28;20040;-42
2023/11/24 04:28:25;;;;;;;24.95;4.93;;;;;;;7.80;100.00;101933.44;5046950;28;20135;-50
2023/11/24 04:30:52;;;;;;;25.63;4.25;;;;;;;7.77;100.00;101941.47;5045960;28;20049;-45
2023/11/24 04:33:20;;;;;;;22.10;4.93;;;;;;;7.76;100.00;101945.34;5044955;28;20060;-44
2023/11/24 04:35:48;;;;;;;22.58;4.28;;;;;;;7.74;100.00;101950.34;5046155;28;20056;-45
2023/11/24 04:38:16;;;;;;;17.45;3.90;;;;;;;7.74;100.00;101948.41;5041673;28;20045;-48
2023/11/24 04:40:44;;;;;;;34.83;8.15;;;;;;;7.74;100.00;101937.38;5045764;28;20815;-46
2023/11/24 04:43:11;;;;;;;16.95;3.85;;;;;;;7.75;100.00;101933.53;5045674;28;20041;-45
2023/11/24 04:45:42;;;;;;;23.77;5.28;;;;;;;7.73;100.00;101930.22;5044541;28;20049;-45
2023/11/24 04:48:12;;;;;;;21.02;5.22;;;;;;;7.74;100.00;101934.63;5046655;28;20044;-44
2023/11/24 04:50:39;;;;;;;17.83;4.75;;;;;;;7.73;100.00;101941.25;5045584;28;20051;-44
2023/11/24 04:53:08;;;;;;;17.63;4.05;;;;;;;7.72;100.00;101942.38;5045729;28;20041;-45
2023/11/24 04:55:35;;;;;;;19.42;3.22;;;;;;;7.72;100.00;101939.63;5044931;28;20045;-47
2023/11/24 04:58:02;;;;;;;31.15;4.93;;;;;;;7.68;100.00;101933.06;5046379;28;20041;-43
2023/11/24 05:00:30;;;;;;;25.67;4.13;;;;;;;7.66;100.00;101940.81;5044674;28;20690;-45
2023/11/24 05:02:57;;;;;;;17.52;4.35;;;;;;;7.63;100.00;101944.16;5045898;28;20060;-44
2023/11/24 05:05:25;;;;;;;16.25;3.70;;;;;;;7.62;100.00;101942.53;5045180;28;20056;-44
2023/11/24 05:07:52;;;;;;;15.05;3.58;;;;;;;7.62;100.00;101939.78;5046097;28;20045;-44
2023/11/24 05:10:20;;;;;;;18.73;3.75;;;;;;;7.60;100.00;101939.22;5045917;28;20380;-45
2023/11/24 05:12:47;;;;;;;23.15;3.67;;;;;;;7.62;100.00;101927.91;5045972;28;20053;-46
2023/11/24 05:15:14;;;;;;;20.83;6.47;;;;;;;7.63;100.00;101938.63;5046528;28;20041;-44
2023/11/24 05:17:42;;;;;;;19.10;3.70;;;;;;;7.63;100.00;101929.53;5046050;28;20064;-43
2023/11/24 05:20:12;;;;;;;23.67;5.15;;;;;;;7.64;100.00;101933.94;5040255;28;20414;-44
2023/11/24 05:22:39;;;;;;;21.25;3.67;;;;;;;7.63;100.00;101927.63;5046541;28;20049;-44
2023/11/24 05:25:07;;;;;;;24.50;4.30;;;;;;;7.63;100.00;101935.88;5045611;28;20041;-45
2023/11/24 05:27:35;;;;;;;18.98;4.05;;;;;;;7.63;100.00;101935.06;5046359;28;20045;-44
2023/11/24 05:30:07;;;;;;;24.25;5.63;;;;;;;7.64;100.00;101929.25;5046363;28;20041;-47
2023/11/24 05:32:37;;;;;;;20.33;4.03;;;;;;;7.62;100.00;101934.25;5046425;28;20060;-46
2023/11/24 05:35:05;;;;;;;30.33;4.70;;;;;;;7.62;100.00;101927.91;5046733;28;20049;-44
2023/11/24 05:37:32;;;;;;;27.17;5.00;;;;;;;7.62;100.00;101934.25;5045270;28;20053;-46
2023/11/24 05:40:01;;;;;;;22.88;4.82;;;;;;;7.63;100.00;101935.88;5033720;28;20052;-44
2023/11/24 05:42:29;;;;;;;24.02;3.38;;;;;;;7.65;100.00;101939.16;5046379;28;20045;-44
2023/11/24 05:44:56;;;;;;;22.45;4.45;;;;;;;7.66;100.00;101945.50;5045856;28;20049;-42
2023/11/24 05:47:23;;;;;;;21.13;4.43;;;;;;;7.64;100.00;101939.47;5045689;28;20045;-44
2023/11/24 05:49:52;;;;;;;15.23;4.35;;;;;;;7.64;100.00;101942.22;5046027;28;20060;-46
2023/11/24 05:52:20;;;;;;;30.60;5.38;;;;;;;7.66;100.00;101945.50;5045709;28;20079;-44
2023/11/24 05:54:48;;;;;;;16.85;3.53;;;;;;;7.65;100.00;101932.84;5045530;28;20056;-44
2023/11/24 05:57:15;;;;;;;28.42;5.43;;;;;;;7.64;100.00;101936.72;5023236;28;20056;-45
2023/11/24 05:59:43;;;;;;;15.48;4.18;;;;;;;7.62;100.00;101942.53;5049331;28;20056;-44
2023/11/24 06:02:10;;;;;;;29.00;4.88;;;;;;;7.63;100.00;101946.91;5048677;28;20053;-43
2023/11/24 06:04:37;;;;;;;24.95;3.70;;;;;;;7.64;100.00;101944.97;5048544;28;20052;-43
2023/11/24 06:07:05;;;;;;;25.88;3.83;;;;;;;7.63;100.00;101951.59;5049106;28;20403;-45
2023/11/24 06:09:33;;;;;;;23.33;4.10;;;;;;;7.64;100.00;101948.56;5049021;28;20061;-45
2023/11/24 06:12:01;;;;;;;26.70;6.03;;;;;;;7.64;100.00;101956.00;5048248;28;20052;-45
2023/11/24 06:14:28;;;;;;;21.55;4.35;;;;;;;7.61;100.00;101954.66;5048749;28;20052;-44
2023/11/24 06:16:55;;;;;;;24.73;7.15;;;;;;;7.63;100.00;101963.44;5049234;28;20041;-45
2023/11/24 06:19:23;;;;;;;18.80;3.45;;;;;;;7.62;100.00;101956.31;5049006;28;20064;-44
2023/11/24 06:21:50;;;;;;;29.38;5.05;;;;;;;7.60;100.00;101949.44;5048339;28;20045;-44
2023/11/24 06:24:17;;;;;;;22.90;7.88;;;;;;;7.59;100.00;101948.63;5049177;28;20080;-44
2023/11/24 06:26:45;;;;;;;21.05;4.00;;;;;;;7.58;100.00;101944.22;5031410;28;20037;-44
2023/11/24 06:29:14;;;;;;;28.13;4.68;;;;;;;7.58;100.00;101946.97;5048839;28;20052;-43
2023/11/24 06:31:41;;;;;;;23.67;5.25;;;;;;;7.58;100.00;101958.00;5046553;28;20053;-45
2023/11/24 06:34:09;;;;;;;22.50;4.47;;;;;;;7.56;100.00;101954.72;5049052;28;20398;-45
2023/11/24 06:36:37;;;;;;;25.13;4.00;;;;;;;7.54;100.00;101943.19;5048290;28;20071;-43
2023/11/24 06:39:09;;;;;;;30.67;4.18;;;;;;;7.54;100.00;101937.69;5048995;28;20049;-45
2023/11/24 06:41:37;;;;;;;;;;;;;;;7.53;100.00;101941.53;5045481;28;20475;-44
2023/11/24 06:44:04;;;;;;;20.63;4.07;;;;;;;7.53;100.00;101941.53;5047698;28;19936;-44
2023/11/24 06:46:31;;;;;;;34.50;5.25;;;;;;;7.51;100.00;101938.25;5040898;28;20053;-45
2023/11/24 06:48:59;;;;;;;25.27;6.40;;;;;;;7.48;100.00;101930.59;5048231;28;20041;-44
2023/11/24 06:51:27;;;;;;;26.92;4.85;;;;;;;7.45;100.00;101938.59;5047461;28;20044;-44
2023/11/24 06:53:54;;;;;;;30.67;7.00;;;;;;;7.40;100.00;101936.75;5048190;28;20073;-44
2023/11/24 06:56:22;;;;;;;17.65;4.05;;;;;;;7.40;100.00;101930.41;5037293;28;20041;-44
2023/11/24 06:58:54;;;;;;;20.27;3.05;;;;;;;7.34;100.00;101930.47;5047612;28;20120;-44
2023/11/24 07:01:31;;;;;;;24.27;4.05;;;;;;;7.33;100.00;101925.28;5047511;28;20071;-43
2023/11/24 07:04:02;;;;;;;25.52;4.88;;;;;;;7.30;100.00;101936.88;5046161;28;20040;-47
2023/11/24 07:06:30;;;;;;;23.48;4.13;;;;;;;7.25;100.00;101926.72;5029941;28;20406;-44
2023/11/24 07:08:58;;;;;;;33.92;7.15;;;;;;;7.23;100.00;101930.88;5047888;28;20045;-44
2023/11/24 07:11:26;;;;;;;21.60;5.65;;;;;;;7.19;100.00;101925.16;5046344;28;20052;-44
2023/11/24 07:13:53;;;;;;;25.05;4.55;;;;;;;7.19;100.00;101943.63;5047014;28;20056;-47
2023/11/24 07:16:22;;;;;;;21.52;5.80;;;;;;;7.17;100.00;101943.09;5047943;28;20045;-44
2023/11/24 07:18:49;;;;;;;25.77;5.75;;;;;;;7.13;100.00;101940.09;5047317;28;20048;-44
2023/11/24 07:21:17;;;;;;;20.02;4.53;;;;;;;7.12;100.00;101932.16;5047393;28;20053;-44
2023/11/24 07:23:44;;;;;;;30.23;5.05;;;;;;;7.11;100.00;101927.75;5047828;28;20055;-43
2023/11/24 07:26:18;;;;;;;20.02;4.10;;;;;;;7.07;100.00;101932.22;5048275;28;20045;-45
2023/11/24 07:28:45;;;;;;;21.85;4.38;;;;;;;7.02;100.00;101935.81;5041813;28;20056;-44
2023/11/24 07:31:17;;;;;;;29.77;4.70;;;;;;;6.99;100.00;101932.84;5046947;28;20048;-43
2023/11/24 07:33:48;;;;;;;;;;;;;;;6.94;100.00;101930.13;5047239;28;20049;-44
2023/11/24 07:36:18;;;;;;;25.02;5.28;;;;;;;6.93;100.00;101939.50;5047655;28;19925;-44
2023/11/24 07:38:47;;;;;;;18.85;4.82;;;;;;;6.90;100.00;101932.66;5047478;28;20509;-46
2023/11/24 07:41:15;;;;;;;28.55;5.35;;;;;;;6.91;100.00;101944.50;5047646;28;20052;-44
2023/11/24 07:43:43;;;;;;;16.77;4.20;;;;;;;6.94;100.00;101943.88;5047289;28;20391;-43
2023/11/24 07:46:11;;;;;;;35.08;6.30;;;;;;;6.96;100.00;101952.69;5047031;28;20044;-44
2023/11/24 07:48:40;;;;;;;19.25;4.68;;;;;;;6.95;100.00;101956.56;5047579;28;20041;-45
2023/11/24 07:51:07;;;;;;;27.25;4.90;;;;;;;6.95;100.00;101949.13;5027452;28;20131;-45
2023/11/24 07:53:35;;;;;;;19.10;5.03;;;;;;;7.02;100.00;101954.25;5047228;28;20045;-43
2023/11/24 07:56:04;;;;;;;12.27;4.10;;;;;;;7.04;100.00;101949.31;5046961;28;20056;-46
2023/11/24 07:58:31;;;;;;;20.88;6.07;;;;;;;7.05;100.00;101939.91;5045712;28;20454;-44
2023/11/24 08:01:00;;;;;;;23.83;5.22;;;;;;;7.05;100.00;101934.41;5046473;28;20049;-44
2023/11/24 08:03:29;;;;;;;30.13;4.65;;;;;;;7.02;100.00;101941.31;5046686;28;20503;-45
2023/11/24 08:05:57;;;;;;;19.65;3.75;;;;;;;7.02;100.00;101933.06;5033804;28;20053;-43
2023/11/24 08:08:25;;;;;;;30.70;4.32;;;;;;;7.03;100.00;101947.66;5047827;28;20045;-44
2023/11/24 08:10:52;;;;;;;22.63;4.38;;;;;;;7.03;100.00;101942.16;5047383;28;20037;-45
2023/11/24 08:13:19;;;;;;;20.10;4.28;;;;;;;7.06;100.00;101947.06;5045904;28;20044;-44
2023/11/24 08:15:47;;;;;;;35.00;6.97;;;;;;;7.08;100.00;101937.41;5046181;28;20111;-44
2023/11/24 08:18:14;;;;;;;24.48;4.22;;;;;;;7.06;100.00;101938.81;5046499;28;20045;-43
2023/11/24 08:20:42;;;;;;;30.17;5.15;;;;;;;7.06;100.00;101941.56;5038771;28;20063;-43
2023/11/24 08:23:13;;;;;;;26.92;6.57;;;;;;;7.01;100.00;101936.94;5047001;28;20541;-44
2023/11/24 08:25:41;;;;;;;22.02;5.50;;;;;;;6.98;100.00;101947.72;5043805;28;20056;-45
2023/11/24 08:28:09;;;;;;;24.17;4.18;;;;;;;6.98;100.00;101944.97;5039957;28;20574;-45
2023/11/24 08:30:38;;;;;;;25.17;6.60;;;;;;;6.98;100.00;101939.47;5044105;28;20041;-43
2023/11/24 08:33:05;;;;;;;31.55;5.35;;;;;;;7.02;100.00;101955.09;5045520;28;20403;-44
2023/11/24 08:35:32;;;;;;;27.83;6.03;;;;;;;7.06;100.00;101963.59;5044932;28;20752;-44
2023/11/24 08:38:00;;;;;;;27.23;4.32;;;;;;;7.11;100.00;101960.78;5045361;28;20044;-44
2023/11/24 08:40:27;;;;;;;36.08;7.03;;;;;;;7.14;100.00;101954.69;5041620;28;20351;-45
2023/11/24 08:42:56;;;;;;;22.40;4.10;;;;;;;7.19;100.00;101962.91;5045334;28;20581;-44
2023/11/24 08:45:24;;;;;;;21.40;4.53;;;;;;;7.24;100.00;101971.09;5046082;28;20052;-44
2023/11/24 08:47:52;;;;;;;17.85;5.93;;;;;;;7.27;100.00;101959.50;5037599;28;20065;-44
2023/11/24 08:50:19;;;;;;;33.30;6.15;;;;;;;7.31;100.00;101955.84;5045767;28;20044;-45
2023/11/24 08:52:47;;;;;;;23.88;4.20;;;;;;;7.34;100.00;101954.44;5046518;28;20414;-44
2023/11/24 08:55:16;;;;;;;24.73;4.70;;;;;;;7.40;100.00;101952.44;5046953;28;20056;-46
2023/11/24 08:57:44;;;;;;;28.60;4.03;;;;;;;7.43;100.00;101947.19;5046687;28;20045;-44
2023/11/24 09:00:14;;;;;;;23.95;5.28;;;;;;;7.47;100.00;101952.91;5028830;28;20045;-45
2023/11/24 09:02:41;;;;;;;21.60;4.10;;;;;;;7.49;100.00;101946.00;5045687;28;20041;-45
2023/11/24 09:05:09;;;;;;;22.90;4.43;;;;;;;7.51;100.00;101954.78;5046595;28;20048;-44
2023/11/24 09:07:36;;;;;;;22.17;5.07;;;;;;;7.52;100.00;101961.13;5045258;28;20060;-48
2023/11/24 09:10:05;;;;;;;27.52;5.07;;;;;;;7.55;100.00;101971.53;5046564;28;20410;-45
2023/11/24 09:12:33;;;;;;;19.70;3.42;;;;;;;7.57;100.00;101974.84;5046233;28;20044;-43
2023/11/24 09:15:04;;;;;;;21.00;3.88;;;;;;;7.59;100.00;101967.91;5045328;28;20052;-46
2023/11/24 09:17:34;;;;;;;23.73;3.85;;;;;;;7.61;100.00;101957.41;5046131;28;20049;-44
2023/11/24 09:20:01;;;;;;;16.38;3.67;;;;;;;7.62;100.00;101948.03;5038583;28;20060;-45
2023/11/24 09:22:33;;;;;;;17.77;3.85;;;;;;;7.64;100.00;101943.03;5046410;28;20060;-44
2023/11/24 09:25:02;;;;;;;20.95;4.57;;;;;;;7.65;100.00;101944.66;5046013;28;20045;-44
2023/11/24 09:27:34;;;;;;;20.67;4.00;;;;;;;7.66;100.00;101946.31;5045542;28;20052;-44
2023/11/24 09:30:04;;;;;;;15.60;3.60;;;;;;;7.66;100.00;101946.31;5044724;28;20041;-47
2023/11/24 09:32:34;;;;;;;23.90;5.97;;;;;;;7.66;100.00;101954.59;5044364;28;20079;-44
2023/11/24 09:35:05;;;;;;;23.17;4.43;;;;;;;7.70;100.00;101950.13;5048278;28;20752;-45
2023/11/24 09:37:33;;;;;;;18.55;4.47;;;;;;;7.73;100.00;101957.78;5048515;28;20501;-44
2023/11/24 09:40:03;;;;;;;20.63;4.28;;;;;;;7.75;100.00;101952.00;5046714;28;20049;-46
2023/11/24 09:42:43;;;;;;;16.52;3.67;;;;;;;7.76;100.00;101946.16;5039686;28;20052;-44
2023/11/24 09:45:15;;;;;;;18.25;3.45;;;;;;;7.76;100.00;101951.69;5048657;28;20053;-43
2023/11/24 09:47:47;;;;;;;27.17;5.57;;;;;;;7.79;100.00;101955.78;5048860;28;20041;-43
2023/11/24 09:50:26;;;;;;;23.15;3.75;;;;;;;7.80;100.00;101944.47;5045644;28;20434;-45
2023/11/24 09:52:56;;;;;;;17.77;3.25;;;;;;;7.82;100.00;101947.75;5041719;28;20061;-45
2023/11/24 09:55:25;;;;;;;24.45;4.88;;;;;;;7.87;100.00;101958.69;5044215;28;20068;-43
2023/11/24 09:57:55;;;;;;;24.23;4.88;;;;;;;7.89;100.00;101953.69;5049839;28;20499;-43
2023/11/24 10:00:25;;;;;;;25.45;5.28;;;;;;;7.90;100.00;101963.63;5042253;28;20053;-42
2023/11/24 10:02:58;;;;;;;26.73;4.60;;;;;;;7.90;100.00;101966.38;5046432;28;20056;-43
2023/11/24 10:05:26;;;;;;;18.45;3.38;;;;;;;7.95;100.00;101971.81;5049163;28;20060;-43
2023/11/24 10:07:55;;;;;;;28.92;4.28;;;;;;;7.98;100.00;101967.66;5049545;28;20049;-43
2023/11/24 10:10:25;;;;;;;20.50;5.03;;;;;;;8.04;100.00;101958.19;5043614;28;20049;-43
2023/11/24 10:13:01;;;;;;;22.33;3.22;;;;;;;8.08;100.00;101947.34;5044733;28;20045;-44
2023/11/24 10:15:30;;;;;;;11.95;3.30;;;;;;;8.11;100.00;101952.28;5037532;28;20507;-43
2023/11/24 10:17:58;;;;;;;21.70;4.28;;;;;;;8.13;100.00;101945.34;5035873;28;20276;-42
2023/11/24 10:20:28;;;;;;;17.05;3.20;;;;;;;8.16;100.00;101946.69;5045704;28;20056;-48
2023/11/24 10:22:58;;;;;;;16.80;3.00;;;;;;;8.20;100.00;101945.81;5047702;28;20645;-43
2023/11/24 10:25:28;;;;;;;16.58;3.90;;;;;;;8.26;99.97;101941.03;5044283;28;20053;-46
2023/11/24 10:28:04;;;;;;;15.55;3.30;;;;;;;8.29;99.71;101948.69;5044986;28;20047;-44
2023/11/24 10:30:36;;;;;;;20.65;4.30;;;;;;;8.29;99.44;101946.78;5042116;28;20033;-44
2023/11/24 10:33:04;;;;;;;18.95;3.33;;;;;;;8.30;99.21;101944.84;5040402;28;20774;-43
2023/11/24 10:35:32;;;;;;;18.42;3.53;;;;;;;8.35;99.43;101959.38;5044737;28;20052;-44
2023/11/24 10:38:01;;;;;;;20.83;3.70;;;;;;;8.38;99.17;101960.72;5048102;28;20055;-42
2023/11/24 10:40:29;;;;;;;21.83;4.70;;;;;;;8.38;98.98;101958.78;5029627;28;20048;-44
2023/11/24 10:42:56;;;;;;;15.15;3.92;;;;;;;8.41;98.97;101958.19;5047053;28;20056;-43
2023/11/24 10:45:30;;;;;;;16.92;4.25;;;;;;;8.42;98.76;101954.28;5043765;28;20048;-44
2023/11/24 10:48:09;;;;;;;17.08;3.60;;;;;;;8.44;98.81;101951.22;5047156;28;20045;-44
2023/11/24 10:50:41;;;;;;;22.90;4.22;;;;;;;8.46;98.60;101958.09;5046867;28;20406;-43
2023/11/24 10:53:24;;;;;;;17.48;3.75;;;;;;;8.50;98.56;101950.84;5046572;28;20049;-46
2023/11/24 10:55:54;;;;;;;15.80;3.35;;;;;;;8.53;98.54;101941.94;5047070;28;20045;-44
2023/11/24 10:58:22;;;;;;;22.92;3.70;;;;;;;8.56;98.31;101949.63;5046048;28;20053;-44
2023/11/24 11:00:51;;;;;;;20.27;5.60;;;;;;;8.62;98.08;101952.31;5046298;28;20045;-44
2023/11/24 11:03:18;;;;;;;20.42;3.95;;;;;;;8.64;98.04;101950.88;5045955;28;20038;-43
2023/11/24 11:05:54;;;;;;;13.25;3.65;;;;;;;8.64;97.62;101961.91;5046708;28;20041;-46
2023/11/24 11:08:34;;;;;;;14.00;3.17;;;;;;;8.69;97.58;101964.59;5045362;28;20041;-45
2023/11/24 11:11:05;;;;;;;17.02;3.90;;;;;;;8.70;97.39;101962.66;5046703;28;20398;-44
2023/11/24 11:13:36;;;;;;;20.02;3.50;;;;;;;8.71;97.00;101961.53;5046950;28;20052;-43
2023/11/24 11:16:04;;;;;;;20.35;3.22;;;;;;;8.70;96.76;101952.44;5046672;28;20056;-44
2023/11/24 11:18:33;;;;;;;17.67;4.53;;;;;;;8.76;96.83;101954.00;5045876;28;20049;-45
2023/11/24 11:21:24;;;;;;;14.40;2.88;;;;;;;8.79;96.32;101950.59;5044857;28;20049;-44
2023/11/24 11:24:03;;;;;;;10.23;2.95;;;;;;;8.77;95.69;101944.56;5039028;28;20395;-45
2023/11/24 11:26:50;;;;;;;17.98;4.32;;;;;;;8.73;95.17;101938.03;5046169;28;20045;-44